Time;durP1;ratioP1;P1;durP2;ratioP2;P2;SDS_P1;SDS_P2;PMS_P1;PMS_P2;Temp;Humidity;BMP_temperature;BMP_pressure;BME280_temperature;BME280_humidity;BME280_pressure;Samples;Min_cycle;Max_cycle;Signal;HPM_P1;HPM_P2
2022/02/28 00:00:13;;;;;;;30.98;28.77;;;0.90;76.00;;;;;;5074535;28;20195;-71
2022/02/28 00:02:40;;;;;;;29.95;27.95;;;0.80;76.00;;;;;;5074864;28;20759;-72
2022/02/28 00:05:10;;;;;;;30.92;28.67;;;0.80;76.00;;;;;;5074643;28;20300;-71
2022/02/28 00:07:38;;;;;;;30.65;28.35;;;0.80;75.90;;;;;;5074756;28;20204;-72
2022/02/28 00:10:08;;;;;;;30.30;28.20;;;0.80;75.90;;;;;;5074294;28;20286;-71
2022/02/28 00:12:36;;;;;;;30.60;28.48;;;0.80;75.80;;;;;;5074571;28;20695;-71
2022/02/28 00:15:04;;;;;;;30.20;28.20;;;0.80;76.00;;;;;;5074563;28;20293;-72
2022/02/28 00:17:33;;;;;;;30.58;28.38;;;0.80;76.20;;;;;;5074407;28;20587;-72
2022/02/28 00:20:00;;;;;;;31.00;28.70;;;0.70;76.70;;;;;;5074269;28;20206;-71
2022/02/28 00:22:28;;;;;;;30.52;28.45;;;0.60;77.40;;;;;;5074394;28;20214;-72
2022/02/28 00:24:55;;;;;;;29.95;27.75;;;0.60;77.30;;;;;;5074316;28;20202;-71
2022/02/28 00:27:22;;;;;;;32.95;30.55;;;0.60;77.30;;;;;;5074271;28;20691;-71
2022/02/28 00:29:49;;;;;;;30.20;28.10;;;0.60;77.10;;;;;;5074097;28;20205;-71
2022/02/28 00:32:16;;;;;;;32.45;29.95;;;0.60;76.90;;;;;;5074239;28;20307;-71
2022/02/28 00:34:42;;;;;;;33.83;30.73;;;0.50;78.20;;;;;;5073910;28;20293;-71
2022/02/28 00:37:09;;;;;;;30.92;28.70;;;0.50;78.00;;;;;;5073916;28;20695;-71
2022/02/28 00:39:38;;;;;;;31.73;28.92;;;0.50;79.80;;;;;;5073725;28;20254;-72
2022/02/28 00:42:05;;;;;;;30.67;28.58;;;0.50;79.00;;;;;;5074112;28;20214;-71
2022/02/28 00:44:32;;;;;;;29.95;27.73;;;0.50;78.40;;;;;;5074377;28;20205;-71
2022/02/28 00:46:59;;;;;;;29.63;27.63;;;0.50;78.10;;;;;;5074107;28;20566;-71
2022/02/28 00:49:26;;;;;;;29.48;27.17;;;0.40;77.70;;;;;;5073920;28;20277;-71
2022/02/28 00:51:53;;;;;;;30.95;28.75;;;0.40;77.70;;;;;;5073843;28;20219;-71
2022/02/28 00:54:20;;;;;;;31.67;29.23;;;0.40;77.70;;;;;;5073763;28;20207;-71
2022/02/28 00:56:48;;;;;;;31.45;29.10;;;0.30;77.90;;;;;;5073718;28;20199;-71
2022/02/28 00:59:15;;;;;;;30.83;28.55;;;0.30;78.00;;;;;;5073496;28;20781;-71
2022/02/28 01:01:42;;;;;;;31.05;28.63;;;0.30;78.10;;;;;;5073628;28;20225;-71
2022/02/28 01:04:09;;;;;;;31.05;28.85;;;0.40;78.30;;;;;;5073586;28;20289;-71
2022/02/28 01:06:36;;;;;;;31.05;28.75;;;0.40;77.90;;;;;;5073521;28;20655;-71
2022/02/28 01:09:04;;;;;;;29.50;27.50;;;0.30;77.90;;;;;;5073452;28;20194;-71
2022/02/28 01:11:32;;;;;;;30.90;28.60;;;0.40;78.00;;;;;;5073344;28;20305;-71
2022/02/28 01:14:01;;;;;;;29.65;27.45;;;0.30;78.10;;;;;;5073467;28;20195;-71
2022/02/28 01:16:28;;;;;;;31.48;29.10;;;0.30;78.40;;;;;;5073384;28;20256;-71
2022/02/28 01:18:55;;;;;;;29.80;27.80;;;0.30;78.30;;;;;;5073563;28;20217;-71
2022/02/28 01:21:22;;;;;;;32.22;29.48;;;0.30;78.80;;;;;;5073622;28;20350;-71
2022/02/28 01:23:49;;;;;;;31.27;28.95;;;0.30;80.10;;;;;;5073606;28;20202;-71
2022/02/28 01:26:16;;;;;;;32.03;29.60;;;0.20;82.00;;;;;;5074117;28;20385;-71
2022/02/28 01:28:43;;;;;;;31.75;29.35;;;0.20;80.50;;;;;;5073175;28;20281;-71
2022/02/28 01:31:11;;;;;;;30.30;28.23;;;0.20;79.40;;;;;;5072905;28;20300;-71
2022/02/28 01:33:38;;;;;;;30.75;28.45;;;0.20;78.90;;;;;;5073090;28;20202;-71
2022/02/28 01:36:06;;;;;;;30.60;28.50;;;0.20;78.50;;;;;;5073493;28;20286;-71
2022/02/28 01:38:33;;;;;;;30.52;28.42;;;0.20;78.40;;;;;;5072644;28;20221;-71
2022/02/28 01:41:00;;;;;;;31.13;28.90;;;0.20;78.30;;;;;;5072848;28;20224;-71
2022/02/28 01:43:27;;;;;;;31.63;29.33;;;0.20;78.20;;;;;;5073081;28;20205;-71
2022/02/28 01:45:54;;;;;;;29.58;27.55;;;0.10;78.40;;;;;;5072919;28;20213;-71
2022/02/28 01:48:22;;;;;;;30.75;28.50;;;0.10;78.60;;;;;;5072147;28;20201;-71
2022/02/28 01:50:49;;;;;;;30.45;28.05;;;0.10;78.70;;;;;;5072574;28;20567;-71
2022/02/28 01:53:16;;;;;;;30.83;28.52;;;0.10;78.60;;;;;;5072798;28;20601;-71
2022/02/28 01:55:43;;;;;;;31.52;29.08;;;0.00;79.00;;;;;;5072780;28;20692;-71
2022/02/28 01:58:10;;;;;;;30.75;28.30;;;0.00;79.00;;;;;;5072736;28;20199;-71
2022/02/28 02:00:38;;;;;;;31.35;29.02;;;0.00;78.80;;;;;;5096320;22;20233;-71
2022/02/28 02:03:05;;;;;;;31.08;28.58;;;0.10;78.50;;;;;;5092980;28;20197;-71
2022/02/28 02:05:34;;;;;;;30.52;28.27;;;0.10;78.00;;;;;;5092833;28;20671;-71
2022/02/28 02:08:05;;;;;;;29.50;27.17;;;0.10;78.10;;;;;;5092984;28;20198;-71
2022/02/28 02:10:33;;;;;;;31.63;29.30;;;0.00;78.60;;;;;;5092577;28;20205;-71
2022/02/28 02:13:01;;;;;;;31.20;28.80;;;-0.10;79.00;;;;;;5093021;28;20224;-71
2022/02/28 02:15:28;;;;;;;30.75;28.65;;;-0.10;79.30;;;;;;5092767;28;20206;-71
2022/02/28 02:17:57;;;;;;;30.60;28.42;;;-0.10;79.20;;;;;;5092760;28;20284;-71
2022/02/28 02:20:39;;;;;;;30.38;28.15;;;-0.10;78.80;;;;;;5092440;28;20304;-71
2022/02/28 02:23:12;;;;;;;30.15;28.15;;;-0.10;78.50;;;;;;5092814;28;20289;-71
2022/02/28 02:25:40;;;;;;;31.75;29.17;;;-0.20;78.70;;;;;;5092729;28;20234;-71
2022/02/28 02:28:08;;;;;;;30.15;27.88;;;-0.20;78.90;;;;;;5092489;28;20202;-71
2022/02/28 02:30:36;;;;;;;30.70;28.60;;;-0.30;79.10;;;;;;5092391;28;20197;-71
2022/02/28 02:33:03;;;;;;;30.20;28.15;;;-0.30;79.30;;;;;;5092696;28;20201;-71
2022/02/28 02:35:31;;;;;;;31.02;28.77;;;-0.30;79.30;;;;;;5092415;28;20300;-71
2022/02/28 02:37:59;;;;;;;30.67;28.35;;;-0.40;79.70;;;;;;5092594;28;20197;-71
2022/02/28 02:40:26;;;;;;;31.30;28.95;;;-0.50;80.20;;;;;;5092145;28;20689;-71
2022/02/28 02:42:53;;;;;;;31.52;29.33;;;-0.40;80.20;;;;;;5092526;28;20224;-71
2022/02/28 02:45:20;;;;;;;30.75;28.25;;;-0.30;79.70;;;;;;5092456;28;20260;-71
2022/02/28 02:47:47;;;;;;;29.85;27.98;;;-0.40;79.80;;;;;;5092523;28;20650;-71
2022/02/28 02:50:14;;;;;;;30.55;28.45;;;-0.40;80.20;;;;;;5092278;28;20229;-71
2022/02/28 02:52:41;;;;;;;30.00;27.60;;;-0.30;80.20;;;;;;5092351;28;20309;-72
2022/02/28 02:55:10;;;;;;;30.60;28.52;;;-0.30;79.90;;;;;;5092347;28;20204;-71
2022/02/28 02:57:37;;;;;;;30.40;28.00;;;-0.30;80.10;;;;;;5092411;28;20203;-71
2022/02/28 03:00:07;;;;;;;32.08;29.77;;;-0.30;79.70;;;;;;5095525;28;20220;-71
2022/02/28 03:02:34;;;;;;;30.98;28.67;;;-0.30;79.70;;;;;;5096384;28;20248;-72
2022/02/28 03:05:01;;;;;;;30.80;28.60;;;-0.40;79.90;;;;;;5096197;28;20193;-71
2022/02/28 03:07:28;;;;;;;30.25;28.13;;;-0.40;80.10;;;;;;5096091;28;20201;-71
2022/02/28 03:09:55;;;;;;;29.75;27.55;;;-0.50;80.10;;;;;;5095905;28;20190;-72
2022/02/28 03:12:23;;;;;;;31.20;29.00;;;-0.50;80.20;;;;;;5095996;28;20216;-71
2022/02/28 03:14:50;;;;;;;31.55;29.15;;;-0.50;80.20;;;;;;5095963;28;20283;-71
2022/02/28 03:17:17;;;;;;;30.38;28.15;;;-0.60;80.50;;;;;;5096120;28;20281;-71
2022/02/28 03:19:44;;;;;;;31.63;29.27;;;-0.60;80.60;;;;;;5095682;28;20709;-71
2022/02/28 03:22:10;;;;;;;30.63;28.33;;;-0.60;80.50;;;;;;5095870;28;20217;-71
2022/02/28 03:24:38;;;;;;;33.00;30.55;;;-0.50;80.30;;;;;;5095823;28;20224;-71
2022/02/28 03:27:05;;;;;;;31.85;29.23;;;-0.50;79.80;;;;;;5095698;28;20674;-71
2022/02/28 03:29:33;;;;;;;31.67;29.35;;;-0.50;79.90;;;;;;5095631;28;20595;-71
2022/02/28 03:32:00;;;;;;;30.88;28.55;;;-0.60;80.30;;;;;;5095663;28;20226;-71
2022/02/28 03:34:28;;;;;;;31.58;29.33;;;-0.70;80.70;;;;;;5095562;28;20204;-71
2022/02/28 03:36:55;;;;;;;31.80;28.95;;;-0.70;80.90;;;;;;5095742;28;20209;-71
2022/02/28 03:39:22;;;;;;;30.73;28.42;;;-0.70;81.00;;;;;;5095093;28;20308;-70
2022/02/28 03:41:50;;;;;;;30.73;28.42;;;-0.60;80.70;;;;;;5095582;28;20255;-70
2022/02/28 03:44:16;;;;;;;31.95;29.52;;;-0.60;80.40;;;;;;5095568;28;20674;-70
2022/02/28 03:46:45;;;;;;;30.73;28.23;;;-0.70;81.50;;;;;;5095462;28;20211;-71
2022/02/28 03:49:12;;;;;;;46.08;31.42;;;-0.70;86.80;;;;;;5095197;28;20193;-71
2022/02/28 03:51:39;;;;;;;31.85;29.55;;;-0.70;86.90;;;;;;5095338;28;20252;-70
2022/02/28 03:54:10;;;;;;;31.83;29.63;;;-0.70;88.50;;;;;;5095346;28;20196;-70
2022/02/28 03:56:38;;;;;;;30.00;27.65;;;-0.60;86.40;;;;;;5095287;28;20193;-71
2022/02/28 03:59:05;;;;;;;29.77;27.63;;;-0.70;84.20;;;;;;5094950;28;20315;-71
2022/02/28 04:01:32;;;;;;;32.20;29.70;;;-0.70;83.80;;;;;;5095282;28;20259;-71
2022/02/28 04:04:00;;;;;;;33.38;30.60;;;-0.70;83.20;;;;;;5095036;28;20229;-71
2022/02/28 04:06:29;;;;;;;33.42;30.88;;;-0.80;82.60;;;;;;5095105;28;20292;-71
2022/02/28 04:08:56;;;;;;;32.10;29.65;;;-0.80;82.50;;;;;;5094962;28;20188;-70
2022/02/28 04:11:23;;;;;;;33.78;31.58;;;-0.80;82.10;;;;;;5094218;28;20225;-70
2022/02/28 04:13:49;;;;;;;32.00;29.70;;;-0.80;82.10;;;;;;5094917;28;20206;-71
2022/02/28 04:16:16;;;;;;;32.25;29.85;;;-0.80;82.00;;;;;;5094852;28;20644;-71
2022/02/28 04:18:43;;;;;;;32.58;30.02;;;-0.80;82.00;;;;;;5094623;28;20236;-71
2022/02/28 04:21:12;;;;;;;84.20;34.65;;;-0.80;82.40;;;;;;5094644;28;20251;-71
2022/02/28 04:23:39;;;;;;;32.22;30.02;;;-0.90;88.30;;;;;;5094641;28;20658;-71
2022/02/28 04:26:06;;;;;;;33.85;31.17;;;-0.90;88.00;;;;;;5094540;28;20254;-71
2022/02/28 04:28:32;;;;;;;32.00;29.33;;;-0.90;85.90;;;;;;5094528;28;20229;-71
2022/02/28 04:30:59;;;;;;;36.50;33.40;;;-0.90;84.60;;;;;;5094334;28;20619;-71
2022/02/28 04:33:26;;;;;;;34.03;31.25;;;-0.90;83.60;;;;;;5094437;28;20195;-71
2022/02/28 04:35:53;;;;;;;33.65;31.13;;;-0.80;83.50;;;;;;5094515;28;20555;-71
2022/02/28 04:38:22;;;;;;;33.38;30.95;;;-0.80;82.50;;;;;;5094389;28;20205;-71
2022/02/28 04:40:48;;;;;;;32.03;29.75;;;-0.80;81.90;;;;;;5093863;28;20220;-71
2022/02/28 04:43:15;;;;;;;34.97;32.17;;;-0.80;81.80;;;;;;5094263;28;20192;-71
2022/02/28 04:45:42;;;;;;;34.63;32.10;;;-0.90;82.20;;;;;;5094170;28;20284;-71
2022/02/28 04:48:12;;;;;;;32.38;29.67;;;-1.00;87.40;;;;;;5094247;28;20287;-71
2022/02/28 04:50:39;;;;;;;33.88;31.02;;;-1.00;84.80;;;;;;5093998;28;20289;-71
2022/02/28 04:53:06;;;;;;;34.95;32.25;;;-1.00;83.90;;;;;;5094205;28;20283;-71
2022/02/28 04:55:35;;;;;;;34.90;31.95;;;-0.90;82.80;;;;;;5094074;28;20284;-71
2022/02/28 04:58:02;;;;;;;33.53;30.92;;;-1.00;82.60;;;;;;5093986;28;20650;-71
2022/02/28 05:00:28;;;;;;;33.28;30.58;;;-1.10;83.80;;;;;;5093576;28;20216;-71
2022/02/28 05:02:55;;;;;;;33.90;31.23;;;-1.10;83.20;;;;;;5093914;28;20217;-71
2022/02/28 05:05:22;;;;;;;32.25;29.65;;;-1.10;82.80;;;;;;5093870;28;20292;-72
2022/02/28 05:07:49;;;;;;;33.40;30.80;;;-1.10;82.80;;;;;;5093835;28;20197;-71
2022/02/28 05:10:16;;;;;;;32.30;30.00;;;-1.20;82.70;;;;;;5093611;28;20276;-71
2022/02/28 05:12:44;;;;;;;33.80;31.40;;;-1.30;82.90;;;;;;5093632;28;20212;-71
2022/02/28 05:15:11;;;;;;;32.45;29.92;;;-1.30;82.90;;;;;;5093666;28;20289;-71
2022/02/28 05:17:38;;;;;;;32.50;30.25;;;-1.20;83.10;;;;;;5093650;28;20288;-71
2022/02/28 05:20:06;;;;;;;30.65;28.45;;;-1.20;82.90;;;;;;5093396;28;20570;-71
2022/02/28 05:22:33;;;;;;;33.22;30.73;;;-1.20;82.90;;;;;;5092757;28;20217;-71
2022/02/28 05:25:00;;;;;;;32.88;30.23;;;-1.20;82.70;;;;;;5093537;28;20208;-71
2022/02/28 05:27:27;;;;;;;36.05;33.45;;;-1.10;82.50;;;;;;5093357;28;20628;-71
2022/02/28 05:29:55;;;;;;;32.92;30.33;;;-1.10;82.20;;;;;;5093240;28;20276;-71
2022/02/28 05:32:22;;;;;;;33.45;30.70;;;-1.10;82.00;;;;;;5093460;28;20214;-71
2022/02/28 05:34:49;;;;;;;35.70;32.92;;;-1.20;82.40;;;;;;5093133;28;20240;-71
2022/02/28 05:37:16;;;;;;;34.35;31.85;;;-1.10;82.30;;;;;;5093288;28;20199;-71
2022/02/28 05:39:43;;;;;;;36.42;33.53;;;-1.20;82.30;;;;;;5092679;28;20223;-71
2022/02/28 05:42:10;;;;;;;33.85;31.08;;;-1.20;82.40;;;;;;5093144;28;20225;-71
2022/02/28 05:44:37;;;;;;;34.45;31.55;;;-1.20;82.30;;;;;;5093205;28;20195;-71
2022/02/28 05:47:05;;;;;;;33.28;30.73;;;-1.20;82.30;;;;;;5093247;28;20195;-71
2022/02/28 05:49:32;;;;;;;33.17;30.58;;;-1.20;82.20;;;;;;5093069;28;20198;-71
2022/02/28 05:51:59;;;;;;;32.72;30.33;;;-1.20;82.20;;;;;;5093187;28;20336;-71
2022/02/28 05:54:26;;;;;;;33.75;31.20;;;-1.30;82.60;;;;;;5093183;28;20200;-71
2022/02/28 05:56:53;;;;;;;32.88;30.48;;;-1.30;82.90;;;;;;5092993;28;20244;-72
2022/02/28 05:59:20;;;;;;;33.92;31.25;;;-1.30;82.90;;;;;;5092790;28;20300;-71
2022/02/28 06:01:47;;;;;;;35.13;32.47;;;-1.30;83.00;;;;;;5092928;28;20256;-71
2022/02/28 06:04:15;;;;;;;34.15;31.85;;;-1.30;82.80;;;;;;5092931;28;20653;-71
2022/02/28 06:06:42;;;;;;;36.65;33.65;;;-1.30;83.20;;;;;;5092782;28;20565;-71
2022/02/28 06:09:09;;;;;;;35.60;32.72;;;-1.30;83.10;;;;;;5092605;28;20284;-71
2022/02/28 06:11:36;;;;;;;36.22;33.50;;;-1.30;83.10;;;;;;5092766;28;20209;-71
2022/02/28 06:14:03;;;;;;;35.22;32.22;;;-1.40;83.10;;;;;;5092669;28;20197;-71
2022/02/28 06:16:30;;;;;;;33.13;30.67;;;-1.30;82.90;;;;;;5092757;28;20237;-71
2022/02/28 06:18:57;;;;;;;33.20;30.50;;;-1.40;83.00;;;;;;5092727;28;20298;-71
2022/02/28 06:21:26;;;;;;;36.30;33.78;;;-1.30;83.00;;;;;;5092354;28;20231;-71
2022/02/28 06:23:53;;;;;;;32.50;30.10;;;-1.30;83.00;;;;;;5092606;28;20565;-71
2022/02/28 06:26:20;;;;;;;34.20;31.60;;;-1.30;82.90;;;;;;5092699;28;20291;-71
2022/02/28 06:28:47;;;;;;;35.40;32.72;;;-1.30;83.10;;;;;;5092463;28;20201;-71
2022/02/28 06:31:14;;;;;;;35.63;32.92;;;-1.30;82.90;;;;;;5092446;28;20212;-71
2022/02/28 06:33:41;;;;;;;34.67;31.98;;;-1.30;83.40;;;;;;5093975;28;20201;-71
2022/02/28 06:36:08;;;;;;;34.45;31.35;;;-1.30;83.40;;;;;;5096685;28;20621;-71
2022/02/28 06:38:37;;;;;;;34.72;31.98;;;-1.30;83.40;;;;;;5096615;28;20203;-71
2022/02/28 06:41:04;;;;;;;35.50;32.75;;;-1.30;83.90;;;;;;5096513;28;20251;-71
2022/02/28 06:43:31;;;;;;;35.35;32.40;;;-1.10;83.70;;;;;;5096608;28;20679;-71
2022/02/28 06:46:01;;;;;;;35.90;33.08;;;-1.10;83.00;;;;;;5096484;28;20656;-71
2022/02/28 06:48:27;;;;;;;32.97;30.55;;;-1.00;82.70;;;;;;5096436;28;20220;-71
2022/02/28 06:50:54;;;;;;;35.40;32.33;;;-0.80;82.10;;;;;;5096270;28;20223;-72
2022/02/28 06:53:23;;;;;;;35.35;32.35;;;-0.70;81.50;;;;;;5096436;28;20231;-71
2022/02/28 06:55:52;;;;;;;34.67;32.08;;;-0.80;82.20;;;;;;5096412;28;20275;-71
2022/02/28 06:58:21;;;;;;;38.22;35.22;;;-0.70;82.30;;;;;;5096311;28;20201;-71
2022/02/28 07:00:52;;;;;;;38.22;35.35;;;-0.70;82.80;;;;;;5095915;28;20221;-71
2022/02/28 07:03:19;;;;;;;39.08;36.05;;;-0.70;84.10;;;;;;5096268;28;20199;-71
2022/02/28 07:05:49;;;;;;;36.72;33.38;;;-0.60;87.30;;;;;;5096248;28;20283;-71
2022/02/28 07:08:17;;;;;;;38.17;34.78;;;-0.60;87.40;;;;;;5096128;28;20535;-71
2022/02/28 07:10:44;;;;;;;38.95;35.30;;;-0.50;84.60;;;;;;5095910;28;20284;-71
2022/02/28 07:13:13;;;;;;;38.30;35.25;;;-0.50;83.90;;;;;;5096325;28;20200;-71
2022/02/28 07:15:41;;;;;;;36.70;33.83;;;-0.30;83.60;;;;;;5095997;28;20212;-71
2022/02/28 07:18:08;;;;;;;38.83;35.67;;;-0.30;82.50;;;;;;5095861;28;20212;-71
2022/02/28 07:20:35;;;;;;;37.95;34.90;;;-0.30;81.90;;;;;;5095481;28;20718;-71
2022/02/28 07:23:02;;;;;;;36.85;33.70;;;-0.10;81.80;;;;;;5095982;28;20567;-72
2022/02/28 07:25:29;;;;;;;363.50;64.63;;;0.00;81.00;;;;;;5095946;28;20733;-71
2022/02/28 07:27:56;;;;;;;40.95;37.47;;;0.00;82.60;;;;;;5095744;28;20280;-71
2022/02/28 07:30:25;;;;;;;40.28;36.08;;;0.10;91.60;;;;;;5095490;28;20240;-71
2022/02/28 07:32:52;;;;;;;42.25;38.85;;;0.10;90.80;;;;;;5095640;28;20213;-71
2022/02/28 07:35:19;;;;;;;40.38;36.88;;;0.20;93.30;;;;;;5095436;28;20233;-71
2022/02/28 07:37:46;;;;;;;40.45;36.83;;;0.30;90.70;;;;;;5095558;28;20565;-71
2022/02/28 07:40:15;;;;;;;36.25;33.33;;;0.40;88.70;;;;;;5095289;28;20252;-71
2022/02/28 07:42:42;;;;;;;37.83;34.92;;;0.40;84.20;;;;;;5095401;28;20215;-71
2022/02/28 07:45:10;;;;;;;37.70;34.28;;;0.50;82.80;;;;;;5094404;28;20659;-71
2022/02/28 07:47:38;;;;;;;38.70;35.28;;;0.70;82.20;;;;;;5095459;28;20670;-71
2022/02/28 07:50:06;;;;;;;37.10;33.95;;;0.80;81.50;;;;;;5095141;28;20207;-71
2022/02/28 07:52:33;;;;;;;39.13;35.83;;;0.90;80.60;;;;;;5095251;28;20310;-72
2022/02/28 07:55:00;;;;;;;40.63;36.38;;;1.00;80.30;;;;;;5095292;28;20280;-72
2022/02/28 07:57:27;;;;;;;39.10;35.55;;;1.20;80.20;;;;;;5095176;28;20200;-71
2022/02/28 07:59:55;;;;;;;38.28;34.90;;;1.30;80.00;;;;;;5094764;28;20206;-71
2022/02/28 08:02:22;;;;;;;39.42;36.03;;;1.30;78.70;;;;;;5095045;28;20222;-71
2022/02/28 08:04:54;;;;;;;37.70;34.78;;;1.40;78.30;;;;;;5095095;28;20601;-72
2022/02/28 08:07:21;;;;;;;37.53;34.53;;;1.50;77.20;;;;;;5095180;28;20198;-72
2022/02/28 08:09:48;;;;;;;39.42;36.10;;;1.50;76.30;;;;;;5094914;28;20214;-71
2022/02/28 08:12:15;;;;;;;36.85;33.95;;;1.70;76.00;;;;;;5094905;28;20211;-71
2022/02/28 08:14:42;;;;;;;38.40;34.90;;;1.80;75.60;;;;;;5094859;28;20198;-72
2022/02/28 08:17:09;;;;;;;37.60;34.40;;;2.00;76.40;;;;;;5094692;28;20203;-71
2022/02/28 08:19:36;;;;;;;36.60;33.30;;;2.10;76.00;;;;;;5094670;28;20202;-72
2022/02/28 08:22:04;;;;;;;38.97;35.28;;;2.20;75.60;;;;;;5094537;28;20220;-72
2022/02/28 08:24:31;;;;;;;37.85;34.92;;;2.40;78.30;;;;;;5094605;28;20196;-72
2022/02/28 08:26:59;;;;;;;38.22;35.30;;;2.60;78.60;;;;;;5094645;28;20196;-72
2022/02/28 08:29:26;;;;;;;39.28;36.08;;;2.60;76.00;;;;;;5094466;28;20279;-71
2022/02/28 08:31:52;;;;;;;39.75;35.67;;;2.80;74.70;;;;;;5094527;28;20778;-72
2022/02/28 08:34:19;;;;;;;39.83;36.28;;;2.80;73.20;;;;;;5094248;28;20308;-72
2022/02/28 08:36:46;;;;;;;39.42;35.83;;;2.90;72.10;;;;;;5094367;28;20676;-72
2022/02/28 08:39:14;;;;;;;38.90;35.65;;;3.00;71.60;;;;;;5094217;28;20613;-71
2022/02/28 08:41:41;;;;;;;41.30;37.10;;;3.10;71.00;;;;;;5094257;28;20226;-71
2022/02/28 08:44:08;;;;;;;40.75;37.35;;;3.20;70.70;;;;;;5094395;28;20285;-72
2022/02/28 08:46:36;;;;;;;39.30;35.80;;;3.30;70.40;;;;;;5094466;28;20224;-71
2022/02/28 08:49:03;;;;;;;40.45;36.88;;;3.40;69.50;;;;;;5094257;28;20200;-72
2022/02/28 08:51:30;;;;;;;41.47;38.35;;;3.50;69.20;;;;;;5093922;28;20697;-71
2022/02/28 08:53:57;;;;;;;37.90;34.70;;;3.60;68.80;;;;;;5094095;28;20197;-72
2022/02/28 08:56:25;;;;;;;40.05;36.90;;;3.70;68.60;;;;;;5093847;28;20748;-72
2022/02/28 08:58:52;;;;;;;38.90;35.60;;;3.80;68.30;;;;;;5093765;28;20203;-72
2022/02/28 09:01:19;;;;;;;38.88;35.30;;;3.90;68.30;;;;;;5093770;28;20221;-72
2022/02/28 09:03:46;;;;;;;40.70;37.50;;;4.00;67.50;;;;;;5093823;28;20292;-72
2022/02/28 09:06:13;;;;;;;39.85;36.42;;;4.00;67.40;;;;;;5093825;28;20208;-72
2022/02/28 09:08:40;;;;;;;38.63;35.30;;;4.10;67.10;;;;;;5093841;28;20200;-72
2022/02/28 09:11:06;;;;;;;40.78;37.33;;;4.20;67.20;;;;;;5093598;28;20248;-72
2022/02/28 09:13:35;;;;;;;39.85;36.35;;;4.30;66.70;;;;;;5093747;28;20535;-72
2022/02/28 09:16:02;;;;;;;39.85;36.38;;;4.40;66.50;;;;;;5093575;28;20287;-72
2022/02/28 09:18:29;;;;;;;38.78;35.38;;;4.50;66.30;;;;;;5093481;28;20284;-72
2022/02/28 09:20:56;;;;;;;39.72;36.35;;;4.70;64.40;;;;;;5093298;28;20773;-71
2022/02/28 09:23:24;;;;;;;35.50;32.70;;;4.90;63.50;;;;;;5093616;28;20196;-72
2022/02/28 09:25:50;;;;;;;33.88;31.42;;;4.80;62.50;;;;;;5093496;28;20680;-71
2022/02/28 09:28:17;;;;;;;33.80;31.23;;;4.70;60.80;;;;;;5093441;28;20536;-72
2022/02/28 09:30:46;;;;;;;34.03;31.73;;;4.70;59.90;;;;;;5093193;28;20193;-72
2022/02/28 09:33:13;;;;;;;33.53;30.75;;;4.70;59.70;;;;;;5093439;28;20201;-72
2022/02/28 09:35:40;;;;;;;34.67;31.95;;;4.80;59.20;;;;;;5093041;28;20635;-72
2022/02/28 09:38:07;;;;;;;35.63;32.40;;;4.70;59.30;;;;;;5093308;28;20659;-72
2022/02/28 09:40:35;;;;;;;37.40;34.30;;;5.00;59.30;;;;;;5092817;28;20198;-72
2022/02/28 09:43:05;;;;;;;40.05;36.70;;;5.10;60.40;;;;;;5093267;28;20553;-72
2022/02/28 09:45:32;;;;;;;38.25;35.15;;;5.20;60.40;;;;;;5093217;28;20554;-72
2022/02/28 09:48:01;;;;;;;39.35;35.85;;;5.40;60.50;;;;;;5093155;28;20196;-72
2022/02/28 09:50:28;;;;;;;37.03;34.17;;;5.50;59.60;;;;;;5092980;28;20306;-72
2022/02/28 09:52:54;;;;;;;39.90;36.25;;;5.50;58.90;;;;;;5093185;28;20218;-72
2022/02/28 09:55:21;;;;;;;38.50;35.00;;;5.50;59.40;;;;;;5093038;28;20194;-72
2022/02/28 09:57:51;;;;;;;34.28;31.65;;;5.60;59.00;;;;;;5092940;28;20197;-72
2022/02/28 10:00:19;;;;;;;36.28;33.42;;;5.60;57.60;;;;;;5092629;28;20206;-72
2022/02/28 10:02:46;;;;;;;34.95;32.22;;;5.80;56.70;;;;;;5092847;28;20770;-72
2022/02/28 10:05:15;;;;;;;33.17;30.65;;;6.00;56.20;;;;;;5092764;28;20208;-72
2022/02/28 10:07:52;;;;;;;32.63;30.13;;;6.10;55.40;;;;;;5092475;28;20198;-72
2022/02/28 10:10:20;;;;;;;32.80;30.23;;;6.20;54.80;;;;;;5092585;28;20649;-72
2022/02/28 10:12:48;;;;;;;32.45;29.83;;;6.30;54.90;;;;;;5092724;28;20213;-72
2022/02/28 10:15:19;;;;;;;31.70;29.20;;;6.40;54.50;;;;;;5092762;28;20252;-72
2022/02/28 10:17:49;;;;;;;32.17;29.83;;;6.40;53.40;;;;;;5092716;28;20191;-72
2022/02/28 10:20:23;;;;;;;32.83;30.30;;;6.30;53.70;;;;;;5092551;28;20562;-72
2022/02/28 10:22:57;;;;;;;33.53;31.05;;;6.60;54.00;;;;;;5092738;28;20585;-72
2022/02/28 10:25:30;;;;;;;33.33;30.63;;;6.50;53.60;;;;;;5092566;28;20237;-72
2022/02/28 10:28:19;;;;;;;33.47;30.85;;;6.70;53.60;;;;;;5092602;28;20202;-72
2022/02/28 10:30:55;;;;;;;32.20;29.80;;;6.90;53.00;;;;;;5092451;28;20206;-72
2022/02/28 10:33:28;;;;;;;33.30;30.70;;;7.00;52.00;;;;;;5092469;28;20567;-72
2022/02/28 10:36:10;;;;;;;32.92;30.48;;;7.10;51.70;;;;;;5092739;28;20700;-72
2022/02/28 10:38:42;;;;;;;34.50;31.77;;;7.20;51.40;;;;;;5092465;28;20259;-72
2022/02/28 10:41:17;;;;;;;32.88;30.30;;;7.20;51.10;;;;;;5092464;28;20698;-72
2022/02/28 10:43:45;;;;;;;33.08;30.58;;;7.10;51.80;;;;;;5092581;28;20283;-72
2022/02/28 10:46:17;;;;;;;33.45;30.95;;;7.20;51.90;;;;;;5092410;28;20636;-72
2022/02/28 10:48:59;;;;;;;33.63;30.92;;;7.20;51.80;;;;;;5092502;28;20198;-72
2022/02/28 10:51:28;;;;;;;34.38;31.80;;;7.30;51.80;;;;;;5092181;28;20215;-72
2022/02/28 10:54:11;;;;;;;36.28;33.13;;;7.40;52.10;;;;;;5092368;28;20208;-72
2022/02/28 10:56:46;;;;;;;35.70;32.70;;;7.50;52.50;;;;;;5092377;28;20234;-72
2022/02/28 10:59:13;;;;;;;35.00;32.20;;;7.60;52.40;;;;;;5092092;28;20568;-72
2022/02/28 11:01:42;;;;;;;35.60;32.55;;;7.70;51.70;;;;;;5092235;28;20233;-72
2022/02/28 11:04:09;;;;;;;35.28;31.95;;;7.80;51.20;;;;;;5092321;28;20198;-72
2022/02/28 11:06:39;;;;;;;35.30;32.60;;;7.70;51.70;;;;;;5092198;28;20202;-72
2022/02/28 11:09:06;;;;;;;35.13;32.40;;;7.90;51.20;;;;;;5092200;28;20207;-72
2022/02/28 11:11:34;;;;;;;34.25;31.48;;;7.90;51.30;;;;;;5092105;28;20562;-72
2022/02/28 11:14:01;;;;;;;34.17;31.38;;;8.00;51.40;;;;;;5092191;28;20295;-72
2022/02/28 11:16:30;;;;;;;34.95;31.63;;;8.00;53.00;;;;;;5092139;28;20196;-72
2022/02/28 11:18:57;;;;;;;34.45;31.70;;;7.80;51.00;;;;;;5092261;28;20196;-71
2022/02/28 11:21:24;;;;;;;32.53;30.13;;;7.80;51.20;;;;;;5094154;28;20650;-72
2022/02/28 11:23:52;;;;;;;34.97;32.17;;;7.80;51.20;;;;;;5095819;28;20203;-72
2022/02/28 11:26:19;;;;;;;34.03;31.33;;;8.00;50.80;;;;;;5095893;28;20283;-72
2022/02/28 11:28:47;;;;;;;33.72;30.48;;;8.10;50.00;;;;;;5095703;28;20191;-72
2022/02/28 11:31:16;;;;;;;34.53;31.92;;;7.90;50.50;;;;;;5095505;28;20223;-72
2022/02/28 11:34:03;;;;;;;35.25;32.55;;;8.10;50.70;;;;;;5095624;28;20585;-72
2022/02/28 11:36:46;;;;;;;32.83;30.38;;;8.10;50.20;;;;;;5095639;28;20203;-72
2022/02/28 11:39:14;;;;;;;33.72;30.65;;;8.30;49.60;;;;;;5095273;28;20202;-72
2022/02/28 11:41:41;;;;;;;33.63;30.88;;;8.40;48.70;;;;;;5095472;28;20288;-72
2022/02/28 11:44:08;;;;;;;33.63;30.90;;;8.50;48.90;;;;;;5095520;28;20279;-72
2022/02/28 11:46:38;;;;;;;32.78;30.45;;;8.50;48.70;;;;;;5095442;28;20199;-72
2022/02/28 11:49:07;;;;;;;33.17;30.50;;;8.60;49.10;;;;;;5095638;28;20545;-72
2022/02/28 11:51:38;;;;;;;33.35;30.52;;;8.70;48.80;;;;;;5095271;28;20572;-72
2022/02/28 11:54:06;;;;;;;32.40;30.00;;;8.80;49.90;;;;;;5095367;28;20200;-72
2022/02/28 11:56:56;;;;;;;32.75;30.05;;;8.90;48.80;;;;;;5095205;28;20235;-72
2022/02/28 11:59:34;;;;;;;33.60;31.20;;;8.70;47.80;;;;;;5094978;28;20313;-72
2022/02/28 12:02:10;;;;;;;32.30;29.90;;;8.70;47.60;;;;;;5095060;28;20232;-72
2022/02/28 12:04:41;;;;;;;31.25;29.05;;;8.80;47.70;;;;;;5095178;28;20270;-72
2022/02/28 12:07:26;;;;;;;34.00;31.23;;;8.90;46.90;;;;;;5095059;28;20196;-72
2022/02/28 12:10:02;;;;;;;33.33;30.55;;;8.90;46.00;;;;;;5094865;28;20209;-72
2022/02/28 12:12:33;;;;;;;32.90;30.48;;;8.80;45.80;;;;;;5095073;28;20298;-72
2022/02/28 12:15:22;;;;;;;31.83;29.50;;;8.80;45.80;;;;;;5095007;28;20314;-72
2022/02/28 12:18:19;;;;;;;32.42;29.95;;;9.00;44.70;;;;;;5089103;28;20202;-72
2022/02/28 12:21:05;;;;;;;32.28;29.95;;;9.00;44.90;;;;;;5094658;28;20212;-72
2022/02/28 12:23:32;;;;;;;31.85;29.38;;;9.10;45.30;;;;;;5094753;28;20219;-72
2022/02/28 12:26:08;;;;;;;31.23;28.92;;;9.20;44.50;;;;;;5094617;28;20689;-72
2022/02/28 12:28:55;;;;;;;29.50;27.52;;;9.30;44.40;;;;;;5094618;28;20199;-72
2022/02/28 12:31:36;;;;;;;31.55;29.15;;;9.30;43.60;;;;;;5093983;28;20246;-72
2022/02/28 12:34:08;;;;;;;32.08;29.73;;;9.40;44.10;;;;;;5094304;28;20243;-72
2022/02/28 12:36:36;;;;;;;31.20;28.98;;;9.50;44.10;;;;;;5094652;28;20317;-72
2022/02/28 12:39:12;;;;;;;33.47;31.42;;;9.50;42.80;;;;;;5094284;28;20236;-72